sensor_id;sensor_type;location;lat;lon;timestamp;temperature;humidity
6740;DHT22;3407;49.882;10.920;2023-04-28T00:00:37;9.20;28.10
6740;DHT22;3407;49.882;10.920;2023-04-28T00:05:33;9.10;1.00
6740;DHT22;3407;49.882;10.920;2023-04-28T00:10:31;9.10;1.00
6740;DHT22;3407;49.882;10.920;2023-04-28T00:15:26;9.10;1.00
6740;DHT22;3407;49.882;10.920;2023-04-28T00:20:22;9.20;1.00
6740;DHT22;3407;49.882;10.920;2023-04-28T00:25:17;9.00;1.00
6740;DHT22;3407;49.882;10.920;2023-04-28T00:30:13;8.80;99.90
6740;DHT22;3407;49.882;10.920;2023-04-28T00:35:09;8.80;99.90
6740;DHT22;3407;49.882;10.920;2023-04-28T00:40:05;8.80;65.90
6740;DHT22;3407;49.882;10.920;2023-04-28T00:45:00;8.90;99.90
6740;DHT22;3407;49.882;10.920;2023-04-28T00:50:00;8.80;99.90
6740;DHT22;3407;49.882;10.920;2023-04-28T00:54:57;8.80;99.90
6740;DHT22;3407;49.882;10.920;2023-04-28T00:59:53;9.00;99.90
6740;DHT22;3407;49.882;10.920;2023-04-28T01:04:49;9.00;99.90
6740;DHT22;3407;49.882;10.920;2023-04-28T01:09:45;9.00;99.90
6740;DHT22;3407;49.882;10.920;2023-04-28T01:14:42;9.00;99.90
6740;DHT22;3407;49.882;10.920;2023-04-28T01:19:38;8.90;99.90
6740;DHT22;3407;49.882;10.920;2023-04-28T01:24:33;8.90;99.90
6740;DHT22;3407;49.882;10.920;2023-04-28T01:29:29;8.70;99.90
6740;DHT22;3407;49.882;10.920;2023-04-28T01:34:24;8.80;99.90
6740;DHT22;3407;49.882;10.920;2023-04-28T01:39:20;8.80;99.90
6740;DHT22;3407;49.882;10.920;2023-04-28T01:44:16;8.60;1.00
6740;DHT22;3407;49.882;10.920;2023-04-28T01:49:11;8.70;1.00
6740;DHT22;3407;49.882;10.920;2023-04-28T01:54:07;8.80;1.00
6740;DHT22;3407;49.882;10.920;2023-04-28T01:59:02;8.60;99.90
6740;DHT22;3407;49.882;10.920;2023-04-28T02:03:58;8.60;1.00
6740;DHT22;3407;49.882;10.920;2023-04-28T02:08:53;8.70;1.00
6740;DHT22;3407;49.882;10.920;2023-04-28T02:13:49;8.70;1.00
6740;DHT22;3407;49.882;10.920;2023-04-28T02:18:45;8.70;1.00
6740;DHT22;3407;49.882;10.920;2023-04-28T02:23:40;8.80;1.00
6740;DHT22;3407;49.882;10.920;2023-04-28T02:28:36;8.80;1.00
6740;DHT22;3407;49.882;10.920;2023-04-28T02:33:31;8.80;1.00
6740;DHT22;3407;49.882;10.920;2023-04-28T02:38:28;8.90;1.00
6740;DHT22;3407;49.882;10.920;2023-04-28T02:43:23;8.90;1.00
6740;DHT22;3407;49.882;10.920;2023-04-28T02:48:19;8.90;1.00
6740;DHT22;3407;49.882;10.920;2023-04-28T02:53:16;9.00;1.00
6740;DHT22;3407;49.882;10.920;2023-04-28T02:58:12;9.00;1.00
6740;DHT22;3407;49.882;10.920;2023-04-28T03:03:07;8.90;1.00
6740;DHT22;3407;49.882;10.920;2023-04-28T03:08:03;8.80;1.00
6740;DHT22;3407;49.882;10.920;2023-04-28T03:12:58;8.80;1.00
6740;DHT22;3407;49.882;10.920;2023-04-28T03:17:54;8.80;68.20
6740;DHT22;3407;49.882;10.920;2023-04-28T03:22:50;8.80;1.00
6740;DHT22;3407;49.882;10.920;2023-04-28T03:27:45;8.80;33.90
6740;DHT22;3407;49.882;10.920;2023-04-28T03:32:41;8.80;99.90
6740;DHT22;3407;49.882;10.920;2023-04-28T03:37:36;8.90;99.90
6740;DHT22;3407;49.882;10.920;2023-04-28T03:42:31;9.00;1.00
6740;DHT22;3407;49.882;10.920;2023-04-28T03:47:27;9.00;99.90
6740;DHT22;3407;49.882;10.920;2023-04-28T03:52:23;9.10;1.00
6740;DHT22;3407;49.882;10.920;2023-04-28T03:57:18;9.20;1.00
6740;DHT22;3407;49.882;10.920;2023-04-28T04:02:14;9.20;1.00
6740;DHT22;3407;49.882;10.920;2023-04-28T04:07:10;9.30;99.90
6740;DHT22;3407;49.882;10.920;2023-04-28T04:12:06;9.40;1.00
6740;DHT22;3407;49.882;10.920;2023-04-28T04:17:01;9.50;99.90
6740;DHT22;3407;49.882;10.920;2023-04-28T04:21:57;9.50;99.90
6740;DHT22;3407;49.882;10.920;2023-04-28T04:26:52;9.60;16.20
6740;DHT22;3407;49.882;10.920;2023-04-28T04:31:48;9.60;1.00
6740;DHT22;3407;49.882;10.920;2023-04-28T04:36:43;9.70;1.00
6740;DHT22;3407;49.882;10.920;2023-04-28T04:41:39;9.80;1.00
6740;DHT22;3407;49.882;10.920;2023-04-28T04:46:36;9.80;1.00
6740;DHT22;3407;49.882;10.920;2023-04-28T04:51:32;9.90;99.90
6740;DHT22;3407;49.882;10.920;2023-04-28T04:56:27;9.90;99.90
6740;DHT22;3407;49.882;10.920;2023-04-28T05:01:23;9.80;1.00
6740;DHT22;3407;49.882;10.920;2023-04-28T05:06:19;9.90;1.00
6740;DHT22;3407;49.882;10.920;2023-04-28T05:11:14;10.00;1.00
6740;DHT22;3407;49.882;10.920;2023-04-28T05:16:10;10.10;1.00
6740;DHT22;3407;49.882;10.920;2023-04-28T05:21:06;10.10;1.00
6740;DHT22;3407;49.882;10.920;2023-04-28T05:26:01;10.20;1.00
6740;DHT22;3407;49.882;10.920;2023-04-28T05:30:58;10.20;1.00
6740;DHT22;3407;49.882;10.920;2023-04-28T05:35:53;10.20;1.00
6740;DHT22;3407;49.882;10.920;2023-04-28T05:40:49;10.30;1.00
6740;DHT22;3407;49.882;10.920;2023-04-28T05:45:45;10.50;1.00
6740;DHT22;3407;49.882;10.920;2023-04-28T05:50:40;10.60;99.90
6740;DHT22;3407;49.882;10.920;2023-04-28T05:55:36;10.70;99.90
6740;DHT22;3407;49.882;10.920;2023-04-28T06:00:32;10.80;99.90
6740;DHT22;3407;49.882;10.920;2023-04-28T06:05:28;10.80;99.90
6740;DHT22;3407;49.882;10.920;2023-04-28T06:10:25;10.80;1.00
6740;DHT22;3407;49.882;10.920;2023-04-28T06:15:21;10.90;1.00
6740;DHT22;3407;49.882;10.920;2023-04-28T06:20:16;10.90;99.90
6740;DHT22;3407;49.882;10.920;2023-04-28T06:25:12;10.90;99.90
6740;DHT22;3407;49.882;10.920;2023-04-28T06:30:08;10.90;99.90
6740;DHT22;3407;49.882;10.920;2023-04-28T06:35:04;10.90;99.90
6740;DHT22;3407;49.882;10.920;2023-04-28T06:40:00;11.00;99.90
6740;DHT22;3407;49.882;10.920;2023-04-28T06:44:55;11.00;1.00
6740;DHT22;3407;49.882;10.920;2023-04-28T06:49:51;11.00;1.00
6740;DHT22;3407;49.882;10.920;2023-04-28T06:54:47;10.90;1.00
6740;DHT22;3407;49.882;10.920;2023-04-28T06:59:42;10.90;1.00
6740;DHT22;3407;49.882;10.920;2023-04-28T07:04:38;10.80;1.00
6740;DHT22;3407;49.882;10.920;2023-04-28T07:09:34;10.80;1.00
6740;DHT22;3407;49.882;10.920;2023-04-28T07:14:30;10.80;1.00
6740;DHT22;3407;49.882;10.920;2023-04-28T07:19:26;10.80;1.00
6740;DHT22;3407;49.882;10.920;2023-04-28T07:24:21;10.80;1.00
6740;DHT22;3407;49.882;10.920;2023-04-28T07:29:17;10.80;1.00
6740;DHT22;3407;49.882;10.920;2023-04-28T07:34:13;10.90;1.00
6740;DHT22;3407;49.882;10.920;2023-04-28T07:39:09;11.00;1.00
6740;DHT22;3407;49.882;10.920;2023-04-28T07:44:05;11.00;1.00
6740;DHT22;3407;49.882;10.920;2023-04-28T07:49:02;11.00;1.00
6740;DHT22;3407;49.882;10.920;2023-04-28T07:53:59;11.00;1.00
6740;DHT22;3407;49.882;10.920;2023-04-28T07:58:54;10.90;1.00
6740;DHT22;3407;49.882;10.920;2023-04-28T08:03:51;10.90;1.30
6740;DHT22;3407;49.882;10.920;2023-04-28T08:08:47;10.80;2.80
6740;DHT22;3407;49.882;10.920;2023-04-28T08:13:43;10.50;8.80
6740;DHT22;3407;49.882;10.920;2023-04-28T08:18:39;10.50;20.50
6740;DHT22;3407;49.882;10.920;2023-04-28T08:23:35;10.40;23.40
6740;DHT22;3407;49.882;10.920;2023-04-28T08:28:31;10.40;28.30
6740;DHT22;3407;49.882;10.920;2023-04-28T08:33:28;10.40;35.00
6740;DHT22;3407;49.882;10.920;2023-04-28T08:38:23;10.50;49.90
6740;DHT22;3407;49.882;10.920;2023-04-28T08:43:19;10.70;57.20
6740;DHT22;3407;49.882;10.920;2023-04-28T08:48:20;10.90;58.10
6740;DHT22;3407;49.882;10.920;2023-04-28T08:53:24;11.00;50.00
6740;DHT22;3407;49.882;10.920;2023-04-28T08:58:21;11.10;56.30
6740;DHT22;3407;49.882;10.920;2023-04-28T09:03:18;11.10;47.10
6740;DHT22;3407;49.882;10.920;2023-04-28T09:08:14;11.10;44.60
6740;DHT22;3407;49.882;10.920;2023-04-28T09:13:25;11.00;46.80
6740;DHT22;3407;49.882;10.920;2023-04-28T09:18:21;11.10;63.10
6740;DHT22;3407;49.882;10.920;2023-04-28T09:23:20;11.00;54.80
6740;DHT22;3407;49.882;10.920;2023-04-28T09:28:20;11.10;65.60
6740;DHT22;3407;49.882;10.920;2023-04-28T09:33:16;11.20;76.70
6740;DHT22;3407;49.882;10.920;2023-04-28T09:38:12;11.60;84.70
6740;DHT22;3407;49.882;10.920;2023-04-28T09:43:22;11.60;57.00
6740;DHT22;3407;49.882;10.920;2023-04-28T09:53:26;11.30;63.60
6740;DHT22;3407;49.882;10.920;2023-04-28T09:58:23;11.40;81.30
6740;DHT22;3407;49.882;10.920;2023-04-28T10:03:24;11.30;69.00
6740;DHT22;3407;49.882;10.920;2023-04-28T10:08:21;11.30;72.90
6740;DHT22;3407;49.882;10.920;2023-04-28T10:13:17;11.30;75.20
6740;DHT22;3407;49.882;10.920;2023-04-28T10:18:14;11.20;75.60
6740;DHT22;3407;49.882;10.920;2023-04-28T10:23:42;11.20;81.60
6740;DHT22;3407;49.882;10.920;2023-04-28T10:28:48;11.30;82.80
6740;DHT22;3407;49.882;10.920;2023-04-28T10:33:45;11.30;81.60
6740;DHT22;3407;49.882;10.920;2023-04-28T10:39:07;11.30;72.90
6740;DHT22;3407;49.882;10.920;2023-04-28T11:00:30;11.50;76.60
6740;DHT22;3407;49.882;10.920;2023-04-28T11:05:26;11.50;83.90
6740;DHT22;3407;49.882;10.920;2023-04-28T11:10:23;11.70;86.20
6740;DHT22;3407;49.882;10.920;2023-04-28T11:15:18;11.80;81.50
6740;DHT22;3407;49.882;10.920;2023-04-28T11:20:14;11.90;80.50
6740;DHT22;3407;49.882;10.920;2023-04-28T11:25:13;11.90;72.50
6740;DHT22;3407;49.882;10.920;2023-04-28T11:30:21;12.20;85.00
6740;DHT22;3407;49.882;10.920;2023-04-28T11:35:17;12.30;65.70
6740;DHT22;3407;49.882;10.920;2023-04-28T11:40:13;12.50;64.50
6740;DHT22;3407;49.882;10.920;2023-04-28T11:45:11;12.50;54.20
6740;DHT22;3407;49.882;10.920;2023-04-28T11:50:07;12.60;70.00
6740;DHT22;3407;49.882;10.920;2023-04-28T11:55:03;12.80;68.20
6740;DHT22;3407;49.882;10.920;2023-04-28T12:00:15;12.70;48.50
6740;DHT22;3407;49.882;10.920;2023-04-28T12:05:16;12.70;51.00
6740;DHT22;3407;49.882;10.920;2023-04-28T12:10:12;12.60;45.50
6740;DHT22;3407;49.882;10.920;2023-04-28T12:15:10;12.70;58.20
6740;DHT22;3407;49.882;10.920;2023-04-28T12:20:10;13.30;62.50
6740;DHT22;3407;49.882;10.920;2023-04-28T12:25:08;13.60;12.50
6740;DHT22;3407;49.882;10.920;2023-04-28T12:35:14;13.30;12.40
6740;DHT22;3407;49.882;10.920;2023-04-28T12:40:10;13.60;21.60
6740;DHT22;3407;49.882;10.920;2023-04-28T12:45:07;13.80;12.30
6740;DHT22;3407;49.882;10.920;2023-04-28T12:50:04;14.20;1.00
6740;DHT22;3407;49.882;10.920;2023-04-28T12:55:01;14.50;1.00
6740;DHT22;3407;49.882;10.920;2023-04-28T12:59:57;14.40;1.00
6740;DHT22;3407;49.882;10.920;2023-04-28T13:04:52;14.40;1.00
6740;DHT22;3407;49.882;10.920;2023-04-28T13:09:48;14.40;1.00
6740;DHT22;3407;49.882;10.920;2023-04-28T13:14:43;14.60;1.00
6740;DHT22;3407;49.882;10.920;2023-04-28T13:19:39;14.60;1.00
6740;DHT22;3407;49.882;10.920;2023-04-28T13:24:34;14.40;1.00
6740;DHT22;3407;49.882;10.920;2023-04-28T13:29:30;14.50;1.00
6740;DHT22;3407;49.882;10.920;2023-04-28T13:34:26;14.60;1.00
6740;DHT22;3407;49.882;10.920;2023-04-28T13:39:22;14.60;1.00
6740;DHT22;3407;49.882;10.920;2023-04-28T13:44:17;14.90;1.00
6740;DHT22;3407;49.882;10.920;2023-04-28T13:49:13;15.10;1.00
6740;DHT22;3407;49.882;10.920;2023-04-28T13:54:09;15.00;1.00
6740;DHT22;3407;49.882;10.920;2023-04-28T13:59:05;15.10;1.00
6740;DHT22;3407;49.882;10.920;2023-04-28T14:04:01;15.10;1.00
6740;DHT22;3407;49.882;10.920;2023-04-28T14:08:57;15.60;1.00
6740;DHT22;3407;49.882;10.920;2023-04-28T14:13:53;16.20;1.00
6740;DHT22;3407;49.882;10.920;2023-04-28T14:18:48;16.50;99.90
6740;DHT22;3407;49.882;10.920;2023-04-28T14:23:44;16.80;52.70
6740;DHT22;3407;49.882;10.920;2023-04-28T14:28:39;17.20;1.00
6740;DHT22;3407;49.882;10.920;2023-04-28T14:33:36;17.20;1.00
6740;DHT22;3407;49.882;10.920;2023-04-28T14:38:31;16.90;99.90
6740;DHT22;3407;49.882;10.920;2023-04-28T14:43:27;16.80;1.00
6740;DHT22;3407;49.882;10.920;2023-04-28T14:48:23;16.70;1.00
6740;DHT22;3407;49.882;10.920;2023-04-28T14:53:18;16.90;99.90
6740;DHT22;3407;49.882;10.920;2023-04-28T14:58:14;17.10;1.00
6740;DHT22;3407;49.882;10.920;2023-04-28T15:03:09;17.30;1.00
6740;DHT22;3407;49.882;10.920;2023-04-28T15:08:05;17.10;1.00
6740;DHT22;3407;49.882;10.920;2023-04-28T15:13:01;17.10;99.90
6740;DHT22;3407;49.882;10.920;2023-04-28T15:17:56;16.90;99.90
6740;DHT22;3407;49.882;10.920;2023-04-28T15:22:55;16.50;99.90
6740;DHT22;3407;49.882;10.920;2023-04-28T15:27:51;16.40;1.00
6740;DHT22;3407;49.882;10.920;2023-04-28T15:32:48;16.50;1.00
6740;DHT22;3407;49.882;10.920;2023-04-28T15:37:48;16.70;99.90
6740;DHT22;3407;49.882;10.920;2023-04-28T15:42:46;16.60;99.90
6740;DHT22;3407;49.882;10.920;2023-04-28T15:47:47;16.70;99.90
6740;DHT22;3407;49.882;10.920;2023-04-28T15:52:44;17.00;1.00
6740;DHT22;3407;49.882;10.920;2023-04-28T15:57:41;17.10;1.00
6740;DHT22;3407;49.882;10.920;2023-04-28T16:02:37;17.00;1.00
6740;DHT22;3407;49.882;10.920;2023-04-28T16:07:33;16.90;1.00
6740;DHT22;3407;49.882;10.920;2023-04-28T16:12:33;16.60;1.00
6740;DHT22;3407;49.882;10.920;2023-04-28T16:17:29;16.40;99.90
6740;DHT22;3407;49.882;10.920;2023-04-28T16:22:25;16.40;1.00
6740;DHT22;3407;49.882;10.920;2023-04-28T16:27:22;16.30;1.00
6740;DHT22;3407;49.882;10.920;2023-04-28T16:32:18;16.20;1.00
6740;DHT22;3407;49.882;10.920;2023-04-28T16:37:14;16.00;1.00
6740;DHT22;3407;49.882;10.920;2023-04-28T16:42:09;15.90;1.00
6740;DHT22;3407;49.882;10.920;2023-04-28T16:47:05;16.00;1.00
6740;DHT22;3407;49.882;10.920;2023-04-28T16:52:03;16.00;1.00
6740;DHT22;3407;49.882;10.920;2023-04-28T16:57:00;16.10;1.00
6740;DHT22;3407;49.882;10.920;2023-04-28T17:01:57;16.00;1.00
6740;DHT22;3407;49.882;10.920;2023-04-28T17:06:53;16.00;1.00
6740;DHT22;3407;49.882;10.920;2023-04-28T17:11:49;15.90;1.00
6740;DHT22;3407;49.882;10.920;2023-04-28T17:16:44;15.80;1.00
6740;DHT22;3407;49.882;10.920;2023-04-28T17:21:40;15.70;1.00
6740;DHT22;3407;49.882;10.920;2023-04-28T17:26:35;15.60;1.00
6740;DHT22;3407;49.882;10.920;2023-04-28T17:31:31;15.50;1.00
6740;DHT22;3407;49.882;10.920;2023-04-28T17:36:27;15.40;1.00
6740;DHT22;3407;49.882;10.920;2023-04-28T17:41:22;15.30;1.00
6740;DHT22;3407;49.882;10.920;2023-04-28T17:46:18;15.20;1.00
6740;DHT22;3407;49.882;10.920;2023-04-28T17:51:13;15.00;1.00
6740;DHT22;3407;49.882;10.920;2023-04-28T17:56:09;14.90;1.00
6740;DHT22;3407;49.882;10.920;2023-04-28T18:01:06;14.80;3.20
6740;DHT22;3407;49.882;10.920;2023-04-28T18:06:02;14.80;8.10
6740;DHT22;3407;49.882;10.920;2023-04-28T18:11:01;14.70;14.90
6740;DHT22;3407;49.882;10.920;2023-04-28T18:15:58;14.70;15.80
6740;DHT22;3407;49.882;10.920;2023-04-28T18:20:57;14.60;19.20
6740;DHT22;3407;49.882;10.920;2023-04-28T18:25:53;14.50;24.20
6740;DHT22;3407;49.882;10.920;2023-04-28T18:30:49;14.40;27.90
6740;DHT22;3407;49.882;10.920;2023-04-28T18:35:44;14.20;33.00
6740;DHT22;3407;49.882;10.920;2023-04-28T18:40:41;14.10;43.40
6740;DHT22;3407;49.882;10.920;2023-04-28T18:45:37;14.10;50.90
6740;DHT22;3407;49.882;10.920;2023-04-28T18:50:35;14.00;51.10
6740;DHT22;3407;49.882;10.920;2023-04-28T18:55:33;13.80;54.70
6740;DHT22;3407;49.882;10.920;2023-04-28T19:00:29;13.60;55.70
6740;DHT22;3407;49.882;10.920;2023-04-28T19:05:25;13.40;57.90
6740;DHT22;3407;49.882;10.920;2023-04-28T19:10:20;13.30;71.40
6740;DHT22;3407;49.882;10.920;2023-04-28T19:15:16;13.20;81.50
6740;DHT22;3407;49.882;10.920;2023-04-28T19:20:12;13.10;86.00
6740;DHT22;3407;49.882;10.920;2023-04-28T19:25:08;13.00;88.90
6740;DHT22;3407;49.882;10.920;2023-04-28T19:30:05;12.90;90.50
6740;DHT22;3407;49.882;10.920;2023-04-28T19:35:02;12.80;91.00
6740;DHT22;3407;49.882;10.920;2023-04-28T19:39:58;12.70;92.80
6740;DHT22;3407;49.882;10.920;2023-04-28T19:44:55;12.70;94.10
6740;DHT22;3407;49.882;10.920;2023-04-28T19:49:52;12.60;95.20
6740;DHT22;3407;49.882;10.920;2023-04-28T19:54:48;12.60;94.90
6740;DHT22;3407;49.882;10.920;2023-04-28T19:59:45;12.40;93.80
6740;DHT22;3407;49.882;10.920;2023-04-28T20:04:40;12.30;94.10
6740;DHT22;3407;49.882;10.920;2023-04-28T20:09:37;12.10;95.50
6740;DHT22;3407;49.882;10.920;2023-04-28T20:14:33;12.10;97.20
6740;DHT22;3407;49.882;10.920;2023-04-28T20:19:29;12.00;99.00
6740;DHT22;3407;49.882;10.920;2023-04-28T20:24:25;11.90;99.90
6740;DHT22;3407;49.882;10.920;2023-04-28T20:29:20;12.00;99.90
6740;DHT22;3407;49.882;10.920;2023-04-28T20:34:16;12.00;99.90
6740;DHT22;3407;49.882;10.920;2023-04-28T20:39:12;11.90;99.90
6740;DHT22;3407;49.882;10.920;2023-04-28T20:44:07;11.90;99.90
6740;DHT22;3407;49.882;10.920;2023-04-28T20:49:03;11.80;99.90
6740;DHT22;3407;49.882;10.920;2023-04-28T20:54:00;11.70;99.90
6740;DHT22;3407;49.882;10.920;2023-04-28T20:58:55;11.60;99.90
6740;DHT22;3407;49.882;10.920;2023-04-28T21:03:51;11.50;99.90
6740;DHT22;3407;49.882;10.920;2023-04-28T21:08:46;11.40;99.90
6740;DHT22;3407;49.882;10.920;2023-04-28T21:13:42;11.40;99.90
6740;DHT22;3407;49.882;10.920;2023-04-28T21:18:38;11.20;99.90
6740;DHT22;3407;49.882;10.920;2023-04-28T21:23:34;11.20;99.90
6740;DHT22;3407;49.882;10.920;2023-04-28T21:28:31;11.00;99.90
6740;DHT22;3407;49.882;10.920;2023-04-28T21:33:28;11.00;99.90
6740;DHT22;3407;49.882;10.920;2023-04-28T21:38:24;11.10;99.90
6740;DHT22;3407;49.882;10.920;2023-04-28T21:43:20;11.10;99.90
6740;DHT22;3407;49.882;10.920;2023-04-28T21:48:17;11.20;99.90
6740;DHT22;3407;49.882;10.920;2023-04-28T21:53:12;11.40;99.90
6740;DHT22;3407;49.882;10.920;2023-04-28T21:58:08;11.50;99.90
6740;DHT22;3407;49.882;10.920;2023-04-28T22:03:04;11.50;99.90
6740;DHT22;3407;49.882;10.920;2023-04-28T22:08:00;11.60;99.90
6740;DHT22;3407;49.882;10.920;2023-04-28T22:12:55;11.70;99.90
6740;DHT22;3407;49.882;10.920;2023-04-28T22:17:51;11.60;99.90
6740;DHT22;3407;49.882;10.920;2023-04-28T22:22:46;11.60;99.90
6740;DHT22;3407;49.882;10.920;2023-04-28T22:27:42;11.60;99.90
6740;DHT22;3407;49.882;10.920;2023-04-28T22:32:37;11.60;99.90
6740;DHT22;3407;49.882;10.920;2023-04-28T22:37:33;11.60;99.90
6740;DHT22;3407;49.882;10.920;2023-04-28T22:42:29;11.60;99.90
6740;DHT22;3407;49.882;10.920;2023-04-28T22:47:25;11.60;99.90
6740;DHT22;3407;49.882;10.920;2023-04-28T22:52:20;11.50;99.90
6740;DHT22;3407;49.882;10.920;2023-04-28T22:57:17;11.50;99.90
6740;DHT22;3407;49.882;10.920;2023-04-28T23:02:13;11.40;99.90
6740;DHT22;3407;49.882;10.920;2023-04-28T23:07:08;11.40;99.90
6740;DHT22;3407;49.882;10.920;2023-04-28T23:12:04;11.40;99.90
6740;DHT22;3407;49.882;10.920;2023-04-28T23:17:00;11.40;99.90
6740;DHT22;3407;49.882;10.920;2023-04-28T23:21:55;11.50;99.90
6740;DHT22;3407;49.882;10.920;2023-04-28T23:26:51;11.60;99.90
6740;DHT22;3407;49.882;10.920;2023-04-28T23:31:46;11.70;99.90
6740;DHT22;3407;49.882;10.920;2023-04-28T23:36:49;11.70;99.90
6740;DHT22;3407;49.882;10.920;2023-04-28T23:41:44;11.80;99.90
6740;DHT22;3407;49.882;10.920;2023-04-28T23:46:40;11.90;99.90
6740;DHT22;3407;49.882;10.920;2023-04-28T23:51:35;12.00;99.90
6740;DHT22;3407;49.882;10.920;2023-04-28T23:56:31;12.00;99.90
